createdAt,value
2023-04-09T00:01:22.921Z,100473.50
2023-04-09T00:04:26.166Z,100478.50
2023-04-09T00:07:29.332Z,100468.25
2023-04-09T00:10:32.502Z,100475.03
2023-04-09T00:13:39.679Z,100476.00
2023-04-09T00:16:43.293Z,100474.91
2023-04-09T00:19:46.515Z,100477.47
2023-04-09T00:22:50.481Z,100470.22
2023-04-09T00:25:53.378Z,100469.12
2023-04-09T00:28:56.587Z,100476.06
2023-04-09T00:31:59.507Z,100470.09
2023-04-09T00:35:02.692Z,100478.63
2023-04-09T00:38:06.315Z,100473.44
2023-04-09T00:41:09.573Z,100480.38
2023-04-09T00:44:13.098Z,100474.41
2023-04-09T00:47:16.401Z,100473.94
2023-04-09T00:50:19.624Z,100484.94
2023-04-09T00:53:23.028Z,100477.22
2023-04-09T00:56:27.351Z,100478.03
2023-04-09T00:59:30.633Z,100472.47
2023-04-09T01:02:34.144Z,100472.28
2023-04-09T01:05:44.211Z,100466.25
2023-04-09T01:09:02.280Z,100462.12
2023-04-09T01:12:32.795Z,100460.37
2023-04-09T01:15:40.086Z,100465.66
2023-04-09T01:18:51.636Z,100465.28
2023-04-09T01:21:56.648Z,100468.28
2023-04-09T01:25:18.586Z,100462.78
2023-04-09T01:28:21.913Z,100468.13
2023-04-09T01:31:29.040Z,100463.94
2023-04-09T01:34:32.805Z,100462.22
2023-04-09T01:37:36.367Z,100468.25
2023-04-09T01:40:39.428Z,100460.72
2023-04-09T01:43:43.486Z,100462.78
2023-04-09T01:46:50.473Z,100464.56
2023-04-09T01:49:54.396Z,100467.72
2023-04-09T01:52:57.349Z,100459.88
2023-04-09T01:56:01.533Z,100461.94
2023-04-09T01:59:04.777Z,100463.50
2023-04-09T02:02:23.483Z,100468.75
2023-04-09T02:05:29.597Z,100470.94
2023-04-09T02:08:33.771Z,100462.28
2023-04-09T02:11:42.150Z,100468.91
2023-04-09T02:14:51.636Z,100465.94
2023-04-09T02:17:55.903Z,100455.69
2023-04-09T02:20:59.802Z,100463.44
2023-04-09T02:24:03.115Z,100466.12
2023-04-09T02:27:06.399Z,100460.59
2023-04-09T02:30:09.915Z,100461.53
2023-04-09T02:33:12.912Z,100458.25
2023-04-09T02:36:16.732Z,100457.94
2023-04-09T02:39:19.654Z,100459.84
2023-04-09T02:42:23.016Z,100464.22
2023-04-09T02:45:26.100Z,100462.66
2023-04-09T02:48:30.165Z,100465.62
2023-04-09T02:51:36.062Z,100459.97
2023-04-09T02:54:40.128Z,100456.00
2023-04-09T02:57:43.205Z,100459.78
2023-04-09T03:00:46.596Z,100450.94
2023-04-09T03:03:50.284Z,100453.63
2023-04-09T03:06:54.244Z,100452.53
2023-04-09T03:09:57.288Z,100453.81
2023-04-09T03:13:00.573Z,100456.19
2023-04-09T03:16:03.651Z,100448.91
2023-04-09T03:19:06.890Z,100453.50
2023-04-09T03:22:12.104Z,100455.09
2023-04-09T03:25:15.569Z,100460.75
2023-04-09T03:28:18.618Z,100453.50
2023-04-09T03:31:22.178Z,100458.84
2023-04-09T03:34:25.088Z,100456.66
2023-04-09T03:37:29.305Z,100455.25
2023-04-09T03:40:33.700Z,100460.31
2023-04-09T03:43:36.951Z,100460.31
2023-04-09T03:46:40.466Z,100457.00
2023-04-09T03:49:44.464Z,100451.78
2023-04-09T03:52:48.221Z,100448.62
2023-04-09T03:55:51.234Z,100458.75
2023-04-09T03:58:55.031Z,100459.78
2023-04-09T04:01:59.468Z,100465.16
2023-04-09T04:05:03.925Z,100461.88
2023-04-09T04:08:07.452Z,100469.75
2023-04-09T04:11:10.773Z,100471.19
2023-04-09T04:14:14.407Z,100466.00
2023-04-09T04:17:18.497Z,100466.16
2023-04-09T04:20:22.068Z,100476.09
2023-04-09T04:23:26.415Z,100470.41
2023-04-09T04:26:29.540Z,100471.66
2023-04-09T04:29:33.553Z,100479.66
2023-04-09T04:32:36.812Z,100478.69
2023-04-09T04:35:41.233Z,100478.63
2023-04-09T04:38:44.600Z,100472.69
2023-04-09T04:41:49.532Z,100489.44
2023-04-09T04:44:53.478Z,100480.63
2023-04-09T04:48:01.121Z,100482.22
2023-04-09T04:51:04.128Z,100487.25
2023-04-09T04:54:08.074Z,100486.12
2023-04-09T04:57:11.167Z,100495.44
2023-04-09T05:00:15.019Z,100486.31
2023-04-09T05:03:18.172Z,100493.00
2023-04-09T05:06:22.026Z,100497.66
2023-04-09T05:09:25.427Z,100493.09
2023-04-09T05:12:32.235Z,100494.66
2023-04-09T05:15:39.509Z,100503.69
2023-04-09T05:18:43.071Z,100499.94
2023-04-09T05:21:47.213Z,100501.06
2023-04-09T05:24:54.492Z,100500.94
2023-04-09T05:27:58.114Z,100508.16
2023-04-09T05:31:02.035Z,100508.16
2023-04-09T05:34:07.112Z,100509.84
2023-04-09T05:37:10.916Z,100518.53
2023-04-09T05:40:15.905Z,100510.16
2023-04-09T05:43:19.468Z,100516.62
2023-04-09T05:46:27.063Z,100519.94
2023-04-09T05:49:30.974Z,100518.22
2023-04-09T05:52:34.661Z,100524.00
2023-04-09T05:55:38.055Z,100527.94
2023-04-09T05:58:41.166Z,100524.94
2023-04-09T06:01:44.564Z,100519.94
2023-04-09T06:04:47.879Z,100530.50
2023-04-09T06:07:51.131Z,100525.63
2023-04-09T06:10:54.260Z,100527.00
2023-04-09T06:13:57.345Z,100528.31
2023-04-09T06:17:00.693Z,100529.28
2023-04-09T06:20:03.892Z,100537.50
2023-04-09T06:23:07.164Z,100542.09
2023-04-09T06:26:10.111Z,100541.97
2023-04-09T06:29:13.340Z,100544.78
2023-04-09T06:32:16.891Z,100543.81
2023-04-09T06:35:20.051Z,100541.97
2023-04-09T06:38:22.906Z,100544.31
2023-04-09T06:41:26.779Z,100544.41
2023-04-09T06:44:30.360Z,100548.91
2023-04-09T06:47:33.351Z,100545.09
2023-04-09T06:50:35.985Z,100550.00
2023-04-09T06:53:39.483Z,100552.88
2023-04-09T06:56:42.211Z,100551.91
2023-04-09T06:59:45.643Z,100551.12
2023-04-09T07:02:49.136Z,100554.72
2023-04-09T07:05:52.452Z,100556.34
2023-04-09T07:08:55.902Z,100548.75
2023-04-09T07:11:59.260Z,100559.47
2023-04-09T07:15:03.874Z,100555.94
2023-04-09T07:18:07.348Z,100560.16
2023-04-09T07:21:10.476Z,100553.09
2023-04-09T07:24:13.595Z,100564.34
2023-04-09T07:27:16.520Z,100561.31
2023-04-09T07:30:19.926Z,100563.34
2023-04-09T07:33:22.804Z,100569.47
2023-04-09T07:36:26.739Z,100578.06
2023-04-09T07:39:29.636Z,100578.41
2023-04-09T07:42:33.293Z,100575.28
2023-04-09T07:45:36.200Z,100579.66
2023-04-09T07:48:40.069Z,100579.31
2023-04-09T07:51:43.666Z,100576.06
2023-04-09T07:54:47.060Z,100581.06
2023-04-09T07:57:50.332Z,100582.03
2023-04-09T08:00:53.530Z,100586.31
2023-04-09T08:03:57.434Z,100577.75
2023-04-09T08:07:00.605Z,100580.53
2023-04-09T08:10:04.400Z,100575.28
2023-04-09T08:13:08.048Z,100571.47
2023-04-09T08:16:12.347Z,100578.97
2023-04-09T08:19:17.211Z,100572.56
2023-04-09T08:22:20.568Z,100578.66
2023-04-09T08:25:23.669Z,100577.75
2023-04-09T08:28:26.921Z,100586.66
2023-04-09T08:31:29.946Z,100583.25
2023-04-09T08:34:33.575Z,100593.75
2023-04-09T08:37:36.363Z,100589.72
2023-04-09T08:40:40.506Z,100592.59
2023-04-09T08:43:56.831Z,100597.94
2023-04-09T08:47:01.850Z,100594.31
2023-04-09T08:50:05.051Z,100595.78
2023-04-09T08:53:08.857Z,100600.38
2023-04-09T08:56:14.030Z,100597.06
2023-04-09T08:59:21.347Z,100604.41
2023-04-09T09:02:24.464Z,100595.56
2023-04-09T09:05:41.201Z,100612.03
2023-04-09T09:08:44.228Z,100613.87
2023-04-09T09:11:50.328Z,100621.03
2023-04-09T09:14:53.293Z,100619.19
2023-04-09T09:17:58.798Z,100625.69
2023-04-09T09:21:12.096Z,100631.25
2023-04-09T09:24:18.468Z,100623.94
2023-04-09T09:27:37.318Z,100611.47
2023-04-09T09:30:41.853Z,100615.47
2023-04-09T09:33:45.030Z,100619.97
2023-04-09T09:36:48.750Z,100616.16
2023-04-09T09:39:51.428Z,100612.03
2023-04-09T09:42:56.066Z,100610.53
2023-04-09T09:45:59.069Z,100608.03
2023-04-09T09:49:02.262Z,100607.84
2023-04-09T09:52:09.818Z,100615.84
2023-04-09T09:55:16.811Z,100608.69
2023-04-09T09:58:41.481Z,100607.13
2023-04-09T10:01:46.754Z,100606.84
2023-04-09T10:04:52.971Z,100610.78
2023-04-09T10:07:58.097Z,100608.16
2023-04-09T10:11:01.946Z,100608.78
2023-04-09T10:14:08.037Z,100606.91
2023-04-09T10:17:11.912Z,100607.41
2023-04-09T10:20:24.695Z,100595.44
2023-04-09T10:23:32.945Z,100592.59
2023-04-09T10:26:37.549Z,100592.41
2023-04-09T10:29:48.584Z,100599.69
2023-04-09T10:32:53.374Z,100593.97
2023-04-09T10:36:02.320Z,100591.75
2023-04-09T10:39:15.296Z,100586.81
2023-04-09T10:42:43.345Z,100584.09
2023-04-09T10:45:53.654Z,100583.13
2023-04-09T10:49:18.312Z,100579.03
2023-04-09T10:52:30.330Z,100583.25
2023-04-09T10:55:41.670Z,100579.53
2023-04-09T10:58:44.623Z,100582.31
2023-04-09T11:01:54.806Z,100582.25
2023-04-09T11:05:20.971Z,100575.81
2023-04-09T11:08:24.180Z,100579.91
2023-04-09T11:11:28.612Z,100578.75
2023-04-09T11:14:33.994Z,100585.13
2023-04-09T11:17:37.152Z,100580.63
2023-04-09T11:20:41.397Z,100583.44
2023-04-09T11:23:52.288Z,100585.56
2023-04-09T11:26:56.985Z,100584.66
2023-04-09T11:29:59.903Z,100585.81
2023-04-09T11:33:04.175Z,100581.84
2023-04-09T11:36:09.114Z,100584.47
2023-04-09T11:39:12.438Z,100592.09
2023-04-09T11:42:16.149Z,100579.66
2023-04-09T11:45:21.890Z,100569.44
2023-04-09T11:48:25.071Z,100583.94
2023-04-09T11:51:28.789Z,100590.75
2023-04-09T11:54:35.234Z,100581.25
2023-04-09T11:57:43.963Z,100598.38
2023-04-09T12:00:46.942Z,100588.91
2023-04-09T12:03:56.682Z,100591.88
2023-04-09T12:06:59.842Z,100588.75
2023-04-09T12:10:10.582Z,100584.47
2023-04-09T12:13:13.961Z,100590.50
2023-04-09T12:16:21.175Z,100586.75
2023-04-09T12:19:25.957Z,100592.87
2023-04-09T12:22:29.010Z,100581.91
2023-04-09T12:25:32.693Z,100581.34
2023-04-09T12:28:35.965Z,100584.34
2023-04-09T12:31:38.961Z,100577.41
2023-04-09T12:34:42.131Z,100574.47
2023-04-09T12:37:44.959Z,100570.09
2023-04-09T12:40:48.126Z,100568.72
2023-04-09T12:43:51.466Z,100569.63
2023-04-09T12:46:55.445Z,100569.50
2023-04-09T12:49:58.137Z,100562.06
2023-04-09T12:53:03.714Z,100568.09
2023-04-09T12:56:14.158Z,100568.72
2023-04-09T12:59:19.365Z,100562.69
2023-04-09T13:02:22.460Z,100563.56
2023-04-09T13:05:26.079Z,100563.44
2023-04-09T13:08:29.023Z,100560.62
2023-04-09T13:11:33.066Z,100552.91
2023-04-09T13:14:36.626Z,100547.22
2023-04-09T13:17:39.857Z,100552.44
2023-04-09T13:20:42.819Z,100539.72
2023-04-09T13:23:45.961Z,100537.84
2023-04-09T13:26:49.082Z,100535.84
2023-04-09T13:29:52.365Z,100534.56
2023-04-09T13:32:55.544Z,100532.81
2023-04-09T13:35:58.726Z,100536.38
2023-04-09T13:39:05.631Z,100539.31
2023-04-09T13:42:13.557Z,100543.50
2023-04-09T13:45:18.042Z,100544.97
2023-04-09T13:48:21.921Z,100544.28
2023-04-09T13:51:26.464Z,100544.63
2023-04-09T13:54:29.512Z,100538.37
2023-04-09T13:57:32.300Z,100542.72
2023-04-09T14:00:36.677Z,100537.22
2023-04-09T14:03:41.740Z,100539.78
2023-04-09T14:06:44.768Z,100541.75
2023-04-09T14:09:50.871Z,100538.94
2023-04-09T14:12:54.387Z,100533.06
2023-04-09T14:16:00.321Z,100532.75
2023-04-09T14:19:03.482Z,100529.19
2023-04-09T14:22:08.975Z,100538.72
2023-04-09T14:25:12.135Z,100530.22
2023-04-09T14:28:15.313Z,100533.41
2023-04-09T14:31:21.556Z,100528.19
2023-04-09T14:34:24.915Z,100527.56
2023-04-09T14:37:27.991Z,100523.25
2023-04-09T14:40:32.160Z,100516.50
2023-04-09T14:43:35.055Z,100523.34
2023-04-09T14:46:38.435Z,100517.56
2023-04-09T14:49:41.407Z,100516.81
2023-04-09T14:52:48.401Z,100513.75
2023-04-09T14:55:51.440Z,100514.94
2023-04-09T14:58:54.820Z,100509.69
2023-04-09T15:01:58.300Z,100512.53
2023-04-09T15:05:03.856Z,100515.06
2023-04-09T15:08:07.342Z,100507.44
2023-04-09T15:11:18.135Z,100518.91
2023-04-09T15:14:21.407Z,100514.78
2023-04-09T15:17:26.298Z,100515.13
2023-04-09T15:20:29.167Z,100516.09
2023-04-09T15:23:35.600Z,100511.16
2023-04-09T15:26:38.672Z,100513.94
2023-04-09T15:29:41.920Z,100512.78
2023-04-09T15:32:48.281Z,100514.34
2023-04-09T15:35:51.561Z,100511.75
2023-04-09T15:38:54.798Z,100511.19
2023-04-09T15:41:58.445Z,100514.25
2023-04-09T15:45:01.341Z,100520.03
2023-04-09T15:48:05.315Z,100515.94
2023-04-09T15:51:09.325Z,100512.69
2023-04-09T15:54:12.548Z,100506.91
2023-04-09T15:57:15.737Z,100508.56
2023-04-09T16:00:18.996Z,100512.25
2023-04-09T16:03:22.314Z,100521.25
2023-04-09T16:06:25.622Z,100514.25
2023-04-09T16:09:28.935Z,100517.50
2023-04-09T16:12:32.196Z,100521.59
2023-04-09T16:15:36.130Z,100531.13
2023-04-09T16:18:39.083Z,100521.25
2023-04-09T16:21:44.784Z,100510.84
2023-04-09T16:24:47.634Z,100514.59
2023-04-09T16:27:55.002Z,100517.16
2023-04-09T16:30:58.741Z,100516.09
2023-04-09T16:34:03.696Z,100508.59
2023-04-09T16:37:07.938Z,100509.81
2023-04-09T16:40:11.357Z,100508.44
2023-04-09T16:43:14.225Z,100513.41
2023-04-09T16:46:18.229Z,100518.91
2023-04-09T16:49:21.146Z,100523.19
2023-04-09T16:52:24.553Z,100524.66
2023-04-09T16:55:27.405Z,100522.59
2023-04-09T16:58:30.771Z,100521.84
2023-04-09T17:01:35.378Z,100517.56
2023-04-09T17:04:38.665Z,100510.41
2023-04-09T17:07:43.318Z,100522.16
2023-04-09T17:10:46.535Z,100511.69
2023-04-09T17:13:49.472Z,100514.75
2023-04-09T17:16:53.929Z,100509.41
2023-04-09T17:19:58.533Z,100512.88
2023-04-09T17:23:01.904Z,100512.94
2023-04-09T17:26:05.016Z,100518.13
2023-04-09T17:29:08.213Z,100521.06
2023-04-09T17:32:11.183Z,100528.44
2023-04-09T17:35:14.356Z,100532.59
2023-04-09T17:38:21.425Z,100532.19
2023-04-09T17:41:25.084Z,100528.56
2023-04-09T17:44:28.204Z,100530.62
2023-04-09T17:47:31.462Z,100527.38
2023-04-09T17:50:38.593Z,100539.09
2023-04-09T17:53:41.832Z,100530.78
2023-04-09T17:56:46.158Z,100533.25
2023-04-09T17:59:49.439Z,100528.41
2023-04-09T18:02:54.138Z,100536.75
2023-04-09T18:06:00.773Z,100535.09
2023-04-09T18:09:04.300Z,100542.37
2023-04-09T18:12:07.543Z,100542.28
2023-04-09T18:15:11.116Z,100542.63
2023-04-09T18:18:14.403Z,100543.53
2023-04-09T18:21:18.250Z,100552.31
2023-04-09T18:24:21.556Z,100555.03
2023-04-09T18:27:24.519Z,100553.22
2023-04-09T18:30:27.723Z,100563.47
2023-04-09T18:33:31.119Z,100559.09
2023-04-09T18:36:34.360Z,100560.19
2023-04-09T18:39:37.802Z,100570.09
2023-04-09T18:42:40.997Z,100572.25
2023-04-09T18:45:45.440Z,100570.78
2023-04-09T18:48:50.671Z,100568.06
2023-04-09T18:51:53.607Z,100573.38
2023-04-09T18:54:58.263Z,100582.59
2023-04-09T18:58:02.262Z,100577.41
2023-04-09T19:01:13.231Z,100575.81
2023-04-09T19:04:16.484Z,100577.28
2023-04-09T19:07:22.592Z,100576.97
2023-04-09T19:10:27.342Z,100585.84
2023-04-09T19:13:32.707Z,100586.16
2023-04-09T19:16:37.179Z,100587.41
2023-04-09T19:19:40.493Z,100589.91
2023-04-09T19:22:48.461Z,100580.44
2023-04-09T19:25:53.614Z,100575.91
2023-04-09T19:28:56.922Z,100572.03
2023-04-09T19:32:00.629Z,100567.88
2023-04-09T19:35:03.898Z,100575.22
2023-04-09T19:38:08.063Z,100573.75
2023-04-09T19:41:11.112Z,100574.94
2023-04-09T19:44:14.257Z,100570.19
2023-04-09T19:47:17.168Z,100574.22
2023-04-09T19:50:20.579Z,100573.84
2023-04-09T19:53:23.957Z,100578.97
2023-04-09T19:56:27.235Z,100578.72
2023-04-09T19:59:31.501Z,100575.78
2023-04-09T20:02:35.422Z,100570.78
2023-04-09T20:05:40.389Z,100574.78
2023-04-09T20:08:43.411Z,100581.22
2023-04-09T20:11:47.825Z,100583.28
2023-04-09T20:14:51.129Z,100587.91
2023-04-09T20:17:54.370Z,100580.47
2023-04-09T20:20:57.346Z,100580.47
2023-04-09T20:24:00.766Z,100589.34
2023-04-09T20:27:04.065Z,100579.22
2023-04-09T20:30:08.372Z,100582.34
2023-04-09T20:33:11.791Z,100582.22
2023-04-09T20:36:19.521Z,100580.47
2023-04-09T20:39:25.153Z,100580.72
2023-04-09T20:42:28.473Z,100589.94
2023-04-09T20:45:31.479Z,100586.78
2023-04-09T20:48:34.970Z,100591.91
2023-04-09T20:51:38.057Z,100586.81
2023-04-09T20:54:43.076Z,100592.03
2023-04-09T20:57:46.128Z,100591.09
2023-04-09T21:00:49.414Z,100590.00
2023-04-09T21:03:53.661Z,100598.06
2023-04-09T21:06:58.322Z,100593.50
2023-04-09T21:10:01.920Z,100596.19
2023-04-09T21:13:05.129Z,100593.69
2023-04-09T21:16:09.411Z,100596.41
2023-04-09T21:19:12.573Z,100600.53
2023-04-09T21:22:15.735Z,100597.56
2023-04-09T21:25:18.947Z,100591.06
2023-04-09T21:28:21.802Z,100605.47
2023-04-09T21:31:25.134Z,100604.41
2023-04-09T21:34:28.043Z,100596.19
2023-04-09T21:37:33.139Z,100588.59
2023-04-09T21:40:37.339Z,100597.31
2023-04-09T21:43:40.659Z,100594.31
2023-04-09T21:46:44.933Z,100596.84
2023-04-09T21:49:50.212Z,100593.22
2023-04-09T21:52:53.214Z,100600.16
2023-04-09T21:55:57.486Z,100591.94
2023-04-09T21:59:01.397Z,100591.62
2023-04-09T22:02:04.971Z,100585.44
2023-04-09T22:05:08.801Z,100596.19
2023-04-09T22:08:13.172Z,100598.84
2023-04-09T22:11:16.690Z,100595.38
2023-04-09T22:14:20.678Z,100602.63
2023-04-09T22:17:23.938Z,100598.03
2023-04-09T22:20:27.003Z,100599.16
2023-04-09T22:23:30.189Z,100602.63
2023-04-09T22:26:33.602Z,100607.22
2023-04-09T22:29:37.228Z,100603.44
2023-04-09T22:32:40.182Z,100609.13
2023-04-09T22:35:44.053Z,100606.41
2023-04-09T22:38:46.923Z,100603.44
2023-04-09T22:41:51.088Z,100602.66
2023-04-09T22:44:54.032Z,100604.72
2023-04-09T22:47:57.765Z,100596.97
2023-04-09T22:51:00.650Z,100599.63
2023-04-09T22:54:04.003Z,100607.69
2023-04-09T22:57:06.895Z,100600.72
2023-04-09T23:00:10.619Z,100600.88
2023-04-09T23:03:13.624Z,100602.44
2023-04-09T23:06:19.738Z,100600.69
2023-04-09T23:09:22.834Z,100601.47
2023-04-09T23:12:26.501Z,100595.66
2023-04-09T23:15:29.373Z,100600.38
2023-04-09T23:18:33.143Z,100601.78
2023-04-09T23:21:37.345Z,100595.59
2023-04-09T23:24:40.538Z,100599.91
2023-04-09T23:27:44.119Z,100602.91
2023-04-09T23:30:47.277Z,100598.03
2023-04-09T23:33:50.247Z,100599.31
2023-04-09T23:36:53.468Z,100596.13
2023-04-09T23:39:56.666Z,100594.84
2023-04-09T23:42:59.920Z,100598.34
2023-04-09T23:46:02.832Z,100601.62
2023-04-09T23:49:06.018Z,100611.13
2023-04-09T23:52:08.965Z,100599.09
2023-04-09T23:55:12.441Z,100603.81
2023-04-09T23:58:15.363Z,100593.41
